This is the latest recevied telemetry packets stored in our database for station/object DH1IAC-12. If no packets are shown the sender has not sent any telemetry packets the latest 1 day(s).
Telemetry packets is used to share measurements like repeteater parameters, battery voltage, radiation readings (or any other measurements).
| Time | Press* | Temp.in* | Hum* | QNH* | Temp.out* |
|---|---|---|---|---|---|
| 1836274250 | 940 hPa | 21.2 C deg | 63.6 % | 1019.9 hPa | 31.7 C deg |
| 1778003997 | 926 hPa | 22.5 C deg | 49.7 % | 1004.3 hPa | 14.1 C deg |
| 1778002197 | 926.1 hPa | 22.5 C deg | 49.8 % | 1004.5 hPa | 14.1 C deg |
| 1778000397 | 926.2 hPa | 22.5 C deg | 49.8 % | 1004.5 hPa | 14.2 C deg |
| 1777998597 | 926.1 hPa | 22.5 C deg | 49.8 % | 1004.5 hPa | 16.4 C deg |
| 1777996797 | 926.1 hPa | 22.6 C deg | 49.8 % | 1004.4 hPa | 17.4 C deg |
| 1777994996 | 926.1 hPa | 22.6 C deg | 49.9 % | 1004.4 hPa | 17.9 C deg |
| 1777993196 | 926.2 hPa | 22.6 C deg | 50 % | 1004.6 hPa | 17.8 C deg |
| 1777991396 | 926.5 hPa | 22.6 C deg | 50.2 % | 1004.9 hPa | 16.8 C deg |
| 1777989596 | 926.7 hPa | 22.6 C deg | 50.5 % | 1005.1 hPa | 16.5 C deg |
| 1777987796 | 927.2 hPa | 22.6 C deg | 50.3 % | 1005.5 hPa | 16.6 C deg |
| 1777985996 | 927.5 hPa | 22.6 C deg | 50.1 % | 1005.9 hPa | 16.7 C deg |
| 1777984196 | 927.6 hPa | 22.7 C deg | 49.3 % | 1006 hPa | 14.1 C deg |
| 1777982396 | 927.6 hPa | 22.7 C deg | 49.3 % | 1006 hPa | 14.1 C deg |
| 1777980596 | 927.3 hPa | 22.8 C deg | 49.2 % | 1005.7 hPa | 14.1 C deg |
| 1777978795 | 927.3 hPa | 22.8 C deg | 49.2 % | 1005.7 hPa | 14.1 C deg |
| 1777976995 | 927.5 hPa | 22.9 C deg | 49.1 % | 1005.9 hPa | 14.1 C deg |
| 1777975195 | 927.6 hPa | 22.9 C deg | 49 % | 1006 hPa | 14.1 C deg |
| 1777973395 | 927.6 hPa | 22.9 C deg | 49 % | 1006 hPa | 14.1 C deg |
| 1777971595 | 928 hPa | 23 C deg | 49 % | 1006.4 hPa | 14.1 C deg |
| 1777969795 | 928.2 hPa | 23 C deg | 49 % | 1006.6 hPa | 14.1 C deg |
| 1777967995 | 928.3 hPa | 23.1 C deg | 49.1 % | 1006.6 hPa | 14.1 C deg |
| 1777966195 | 928.3 hPa | 23.1 C deg | 49.1 % | 1006.6 hPa | 14.1 C deg |
| 1777964395 | 928.5 hPa | 23.1 C deg | 49.3 % | 1006.9 hPa | 14.1 C deg |
| 1777962595 | 928.4 hPa | 23.1 C deg | 49.4 % | 1006.8 hPa | 14.1 C deg |
*Used Equation Coefficients:
Press: 0, 1, 0
Temp.in: 0, 1, 0
Hum: 0, 1, 0
QNH: 0, 1, 0
Temp.out: 0, 1, 0
- The parameter names for the analog channels will be Value1, Value2, Value3 (up to Value5) if station has not sent a PARAM-packet that specifies the parameter names for each analog channel.
- Each analog value is a decimal number between 000 and 255 (according to APRS specifications). The receiver use the telemetry equation coefficientsto to restore the original sensor values. If no EQNS-packet with equation coefficients is sent we will show the values as is (this corresponds to the equation coefficients a=0, b=1 and c=0).
The sent equation coefficients is used in the equation: a * value2 + b * value + c. - The units for the analog values will not be shown if station has not sent a UNIT-packet specifying what unit's to use.
- The parameter names for the digital bits will be Bit1, Bit2, Bit3 (up to Bit8) if station has not sent a PARAM-packet that specifies the parameter names for each digital bit.
- All bit labels will be named "On" if station has not sent a UNIT-packet that specifies the label of each bit.
- A bit is considered to be On when the bit is 1 if station has not sent a BITS-packet that specifies another "Bit sense" (a BITS-packet specify the state of the bits that match the BIT labels)